HEAX/ALY METAR and TAF weather

Enter ICAO airport designator
Station Type Date Time Source
HEAX METAR 2020/11/25 23:00 UTC NOAA

HEAX 252300Z 28006KT 9999 SCT020 SCT022 16/12 Q1012 NOSIG


Station Type Date Time Source
HEAX Decoded METAR 2020/11/25 23:00 UTC NOAA

Alexandria / Nouzha, Egypt (HEAX) 31-12N 029-57E 7M
Nov 25, 2020 - 06:00 PM EST / 2020.11.25 2300 UTC
Wind: from the W (280 degrees) at 7 MPH (6 KT):0
Visibility: greater than 7 mile(s):0
Sky conditions: partly cloudy
Temperature: 60 F (16 C)
Dew Point: 53 F (12 C)
Relative Humidity: 77%
Pressure (altimeter): 29.88 in. Hg (1012 hPa)
ob: HEAX 252300Z 28006KT 9999 SCT020 SCT022 16/12 Q1012 NOSIG
cycle: 23

Station Type Date Time Source
HEAX TAF 2020/11/25 18:40 UTC NOAA

TAF HEAX 251700Z 2518/2624 30008G18KT 9999 SCT020 SCT022
TEMPO 2518/2524 4000 TSSHRA FEW017CB BKN020

Example: see airport list